Terminal Aerodrome Forecast
Issued by NWS

Home | Current Version | Previous Version | Graphics & Text | Print | Product List | Glossary On
Versions: 1 2 3 4 5 6 7 8 9 10 11 12 13 14 15
000
FTUS43 KIWX 030537
TAFSBN
TAF
KSBN 030537Z 0306/0406 23010KT P6SM BKN080
     FM031500 31010G17KT P6SM SCT050
     FM032100 30008KT P6SM SKC=

USA.gov is the U.S. government's official web portal to all federal, state and local government web resources and services.